createdAt,value
2023-04-20T00:01:31.960Z,98371.75
2023-04-20T00:04:00.104Z,98376.78
2023-04-20T00:06:30.330Z,98384.53
2023-04-20T00:08:58.448Z,98384.31
2023-04-20T00:11:28.487Z,98386.44
2023-04-20T00:13:56.581Z,98379.81
2023-04-20T00:16:24.712Z,98383.81
2023-04-20T00:18:52.822Z,98381.22
2023-04-20T00:21:24.099Z,98368.09
2023-04-20T00:23:52.695Z,98372.56
2023-04-20T00:26:21.299Z,98376.94
2023-04-20T00:28:54.909Z,98368.53
2023-04-20T00:31:23.364Z,98375.78
2023-04-20T00:33:51.641Z,98371.88
2023-04-20T00:36:19.695Z,98370.53
2023-04-20T00:38:47.778Z,98371.13
2023-04-20T00:41:16.007Z,98370.31
2023-04-20T00:43:51.662Z,98363.78
2023-04-20T00:46:21.290Z,98364.09
2023-04-20T00:48:51.842Z,98374.50
2023-04-20T00:51:21.525Z,98373.28
2023-04-20T00:53:49.783Z,98374.75
2023-04-20T00:56:19.386Z,98360.50
2023-04-20T00:58:48.096Z,98371.81
2023-04-20T01:01:17.646Z,98373.16
2023-04-20T01:03:49.241Z,98366.00
2023-04-20T01:06:18.603Z,98367.47
2023-04-20T01:08:48.141Z,98361.34
2023-04-20T01:11:16.281Z,98377.31
2023-04-20T01:13:44.476Z,98373.13
2023-04-20T01:16:12.922Z,98373.38
2023-04-20T01:18:46.553Z,98373.84
2023-04-20T01:21:18.464Z,98375.06
2023-04-20T01:23:48.037Z,98372.84
2023-04-20T01:26:18.458Z,98376.00
2023-04-20T01:28:47.171Z,98375.31
2023-04-20T01:31:17.055Z,98367.91
2023-04-20T01:33:45.331Z,98367.06
2023-04-20T01:36:13.733Z,98369.09
2023-04-20T01:38:41.911Z,98360.25
2023-04-20T01:41:12.200Z,98359.13
2023-04-20T01:43:41.242Z,98358.88
2023-04-20T01:46:09.488Z,98357.47
2023-04-20T01:48:37.565Z,98369.25
2023-04-20T01:51:05.698Z,98366.94
2023-04-20T01:53:34.239Z,98368.28
2023-04-20T01:56:02.365Z,98358.81
2023-04-20T01:58:31.810Z,98362.66
2023-04-20T02:00:59.898Z,98360.34
2023-04-20T02:03:28.150Z,98374.16
2023-04-20T02:05:56.399Z,98377.59
2023-04-20T02:08:26.525Z,98368.25
2023-04-20T02:10:54.659Z,98368.66
2023-04-20T02:13:22.628Z,98365.97
2023-04-20T02:15:52.152Z,98368.59
2023-04-20T02:18:20.235Z,98368.25
2023-04-20T02:20:48.517Z,98366.50
2023-04-20T02:23:16.546Z,98362.78
2023-04-20T02:25:44.793Z,98364.38
2023-04-20T02:28:13.336Z,98365.69
2023-04-20T02:30:41.429Z,98368.44
2023-04-20T02:33:11.048Z,98358.19
2023-04-20T02:35:39.205Z,98362.84
2023-04-20T02:38:07.249Z,98368.78
2023-04-20T02:40:35.303Z,98366.53
2023-04-20T02:43:03.750Z,98378.28
2023-04-20T02:45:33.512Z,98372.75
2023-04-20T02:48:01.924Z,98366.09
2023-04-20T02:50:33.832Z,98370.34
2023-04-20T02:53:07.899Z,98366.50
2023-04-20T02:55:37.851Z,98374.19
2023-04-20T02:58:15.550Z,98371.75
2023-04-20T03:01:10.043Z,98376.19
2023-04-20T03:03:39.709Z,98376.59
2023-04-20T03:06:13.122Z,98372.19
2023-04-20T03:08:44.598Z,98366.09
2023-04-20T03:11:45.234Z,98368.91
2023-04-20T03:14:20.384Z,98366.25
2023-04-20T03:16:48.591Z,98363.69
2023-04-20T03:19:17.431Z,98363.72
2023-04-20T03:21:47.229Z,98371.75
2023-04-20T03:24:16.267Z,98373.97
2023-04-20T03:26:45.421Z,98369.81
2023-04-20T03:29:33.383Z,98369.88
2023-04-20T03:32:01.568Z,98371.84
2023-04-20T03:34:34.065Z,98376.25
2023-04-20T03:37:03.858Z,98363.84
2023-04-20T03:39:32.030Z,98368.31
2023-04-20T03:42:00.063Z,98368.00
2023-04-20T03:44:28.337Z,98372.66
2023-04-20T03:46:56.370Z,98375.50
2023-04-20T03:49:26.265Z,98372.03
2023-04-20T03:51:54.266Z,98379.63
2023-04-20T03:54:25.455Z,98371.63
2023-04-20T03:56:53.621Z,98375.03
2023-04-20T03:59:22.666Z,98374.31
2023-04-20T04:01:51.979Z,98375.88
2023-04-20T04:04:20.569Z,98369.53
2023-04-20T04:06:48.745Z,98381.97
2023-04-20T04:09:17.075Z,98385.50
2023-04-20T04:11:48.268Z,98388.19
2023-04-20T04:14:16.550Z,98386.63
2023-04-20T04:16:44.700Z,98386.47
2023-04-20T04:19:14.016Z,98386.66
2023-04-20T04:21:42.656Z,98384.47
2023-04-20T04:24:11.310Z,98388.50
2023-04-20T04:26:45.798Z,98394.09
2023-04-20T04:29:16.120Z,98386.66
2023-04-20T04:31:45.087Z,98404.28
2023-04-20T04:34:18.957Z,98401.13
2023-04-20T04:36:51.285Z,98399.38
2023-04-20T04:39:25.341Z,98403.69
2023-04-20T04:42:04.270Z,98402.28
2023-04-20T04:44:43.700Z,98404.09
2023-04-20T04:47:17.741Z,98408.28
2023-04-20T04:49:46.662Z,98412.81
2023-04-20T04:52:14.782Z,98413.59
2023-04-20T04:54:42.913Z,98417.28
2023-04-20T04:57:11.081Z,98423.94
2023-04-20T04:59:39.182Z,98424.59
2023-04-20T05:02:08.639Z,98427.47
2023-04-20T05:04:36.904Z,98424.59
2023-04-20T05:07:05.030Z,98427.19
2023-04-20T05:09:33.673Z,98439.66
2023-04-20T05:12:03.249Z,98434.41
2023-04-20T05:14:32.157Z,98435.31
2023-04-20T05:17:01.106Z,98434.94
2023-04-20T05:19:30.633Z,98439.06
2023-04-20T05:21:58.689Z,98436.69
2023-04-20T05:24:26.862Z,98437.09
2023-04-20T05:26:54.863Z,98440.97
2023-04-20T05:29:22.977Z,98442.03
2023-04-20T05:31:51.025Z,98442.06
2023-04-20T05:34:19.108Z,98440.47
2023-04-20T05:36:49.185Z,98448.06
2023-04-20T05:39:17.709Z,98443.00
2023-04-20T05:41:46.468Z,98446.00
2023-04-20T05:44:14.673Z,98444.56
2023-04-20T05:46:42.725Z,98450.34
2023-04-20T05:49:10.863Z,98443.06
2023-04-20T05:51:38.916Z,98448.47
2023-04-20T05:54:08.421Z,98450.66
2023-04-20T05:56:36.492Z,98451.31
2023-04-20T05:59:04.684Z,98456.41
2023-04-20T06:01:32.781Z,98454.41
2023-04-20T06:04:01.325Z,98455.56
2023-04-20T06:06:29.634Z,98452.88
2023-04-20T06:08:58.260Z,98458.28
2023-04-20T06:11:27.637Z,98452.88
2023-04-20T06:13:55.802Z,98454.06
2023-04-20T06:16:23.901Z,98444.09
2023-04-20T06:18:52.170Z,98443.59
2023-04-20T06:21:20.290Z,98452.97
2023-04-20T06:23:48.329Z,98456.59
2023-04-20T06:26:16.320Z,98459.75
2023-04-20T06:28:47.408Z,98455.75
2023-04-20T06:31:15.460Z,98461.81
2023-04-20T06:33:43.470Z,98460.13
2023-04-20T06:36:11.950Z,98464.03
2023-04-20T06:38:40.830Z,98461.84
2023-04-20T06:41:08.884Z,98447.53
2023-04-20T06:43:36.930Z,98455.25
2023-04-20T06:46:06.515Z,98441.06
2023-04-20T06:48:34.868Z,98453.84
2023-04-20T06:51:03.021Z,98449.28
2023-04-20T06:53:31.105Z,98443.75
2023-04-20T06:55:59.301Z,98445.91
2023-04-20T06:58:27.420Z,98445.53
2023-04-20T07:00:55.547Z,98445.75
2023-04-20T07:03:25.584Z,98454.41
2023-04-20T07:05:53.761Z,98454.38
2023-04-20T07:08:22.005Z,98451.94
2023-04-20T07:10:50.176Z,98461.78
2023-04-20T07:13:18.304Z,98464.94
2023-04-20T07:15:46.728Z,98463.22
2023-04-20T07:18:14.777Z,98472.66
2023-04-20T07:20:44.371Z,98462.06
2023-04-20T07:23:12.410Z,98458.59
2023-04-20T07:25:40.578Z,98463.09
2023-04-20T07:28:08.605Z,98466.41
2023-04-20T07:30:36.808Z,98462.84
2023-04-20T07:33:04.905Z,98474.84
2023-04-20T07:35:33.204Z,98466.66
2023-04-20T07:38:02.688Z,98463.41
2023-04-20T07:40:30.907Z,98469.81
2023-04-20T07:42:58.887Z,98477.84
2023-04-20T07:45:27.271Z,98471.00
2023-04-20T07:47:57.399Z,98470.13
2023-04-20T07:50:25.673Z,98474.38
2023-04-20T07:52:53.727Z,98473.84
2023-04-20T07:55:23.324Z,98470.84
2023-04-20T07:57:51.504Z,98476.97
2023-04-20T08:00:20.674Z,98472.69
2023-04-20T08:02:48.786Z,98475.66
2023-04-20T08:05:17.202Z,98485.00
2023-04-20T08:07:45.528Z,98483.34
2023-04-20T08:10:13.842Z,98473.34
2023-04-20T08:12:43.384Z,98481.91
2023-04-20T08:15:12.391Z,98490.59
2023-04-20T08:17:40.599Z,98481.19
2023-04-20T08:20:10.681Z,98474.53
2023-04-20T08:22:39.659Z,98477.31
2023-04-20T08:25:08.314Z,98482.72
2023-04-20T08:27:36.474Z,98483.59
2023-04-20T08:30:07.905Z,98485.13
2023-04-20T08:32:36.043Z,98489.78
2023-04-20T08:35:05.028Z,98496.78
2023-04-20T08:37:33.245Z,98493.03
2023-04-20T08:40:01.337Z,98486.16
2023-04-20T08:42:29.472Z,98491.41
2023-04-20T08:44:58.970Z,98486.06
2023-04-20T08:47:29.699Z,98482.59
2023-04-20T08:49:59.288Z,98487.63
2023-04-20T08:52:27.323Z,98483.66
2023-04-20T08:54:57.876Z,98500.34
2023-04-20T08:57:26.486Z,98488.44
2023-04-20T08:59:54.637Z,98482.84
2023-04-20T09:02:24.123Z,98481.28
2023-04-20T09:05:04.141Z,98482.09
2023-04-20T09:07:32.572Z,98491.16
2023-04-20T09:10:02.201Z,98489.06
2023-04-20T09:12:30.322Z,98492.88
2023-04-20T09:14:58.294Z,98493.94
2023-04-20T09:17:37.245Z,98490.56
2023-04-20T09:20:08.622Z,98501.38
2023-04-20T09:22:38.537Z,98484.78
2023-04-20T09:25:16.424Z,98490.69
2023-04-20T09:27:44.514Z,98492.63
2023-04-20T09:30:13.504Z,98494.78
2023-04-20T09:32:41.607Z,98483.75
2023-04-20T09:35:11.294Z,98491.59
2023-04-20T09:37:48.845Z,98496.72
2023-04-20T09:40:17.702Z,98495.91
2023-04-20T09:42:46.514Z,98496.22
2023-04-20T09:45:16.455Z,98506.00
2023-04-20T09:47:45.141Z,98495.84
2023-04-20T09:50:26.591Z,98498.31
2023-04-20T09:53:02.754Z,98491.88
2023-04-20T09:55:32.581Z,98491.56
2023-04-20T09:58:03.996Z,98484.47
2023-04-20T10:00:32.095Z,98499.50
2023-04-20T10:03:00.573Z,98496.28
2023-04-20T10:05:39.506Z,98500.72
2023-04-20T10:08:08.273Z,98500.28
2023-04-20T10:10:46.955Z,98493.59
2023-04-20T10:13:16.172Z,98489.91
2023-04-20T10:15:44.287Z,98495.88
2023-04-20T10:18:20.517Z,98488.13
2023-04-20T10:20:50.564Z,98492.66
2023-04-20T10:23:20.024Z,98486.28
2023-04-20T10:25:58.347Z,98491.56
2023-04-20T10:28:26.866Z,98489.00
2023-04-20T10:30:55.197Z,98484.59
2023-04-20T10:33:23.946Z,98490.03
2023-04-20T10:35:57.067Z,98492.06
2023-04-20T10:38:32.243Z,98491.91
2023-04-20T10:41:07.899Z,98488.59
2023-04-20T10:43:39.038Z,98480.84
2023-04-20T10:46:15.170Z,98486.09
2023-04-20T10:48:51.570Z,98481.41
2023-04-20T10:51:22.334Z,98484.97
2023-04-20T10:54:05.203Z,98486.78
2023-04-20T10:56:43.873Z,98489.53
2023-04-20T10:59:13.146Z,98482.31
2023-04-20T11:01:42.116Z,98482.06
2023-04-20T11:04:11.662Z,98478.00
2023-04-20T11:06:42.084Z,98476.13
2023-04-20T11:09:22.786Z,98473.84
2023-04-20T11:12:02.171Z,98472.53
2023-04-20T11:14:31.184Z,98470.09
2023-04-20T11:16:59.274Z,98471.78
2023-04-20T11:19:29.262Z,98462.50
2023-04-20T11:21:59.344Z,98468.44
2023-04-20T11:24:29.174Z,98465.31
2023-04-20T11:26:58.169Z,98467.75
2023-04-20T11:29:33.342Z,98466.66
2023-04-20T11:32:04.252Z,98467.63
2023-04-20T11:34:33.307Z,98461.91
2023-04-20T11:37:07.522Z,98464.97
2023-04-20T11:39:35.930Z,98473.44
2023-04-20T11:42:04.099Z,98468.88
2023-04-20T11:44:32.970Z,98465.25
2023-04-20T11:47:01.985Z,98460.50
2023-04-20T11:49:30.943Z,98463.13
2023-04-20T11:51:58.953Z,98460.63
2023-04-20T11:54:29.920Z,98456.97
2023-04-20T11:56:59.142Z,98453.94
2023-04-20T11:59:27.235Z,98457.59
2023-04-20T12:01:55.364Z,98461.19
2023-04-20T12:04:23.522Z,98463.19
2023-04-20T12:06:51.973Z,98451.84
2023-04-20T12:09:20.305Z,98458.97
2023-04-20T12:11:50.054Z,98459.97
2023-04-20T12:14:18.082Z,98453.66
2023-04-20T12:16:46.229Z,98456.97
2023-04-20T12:19:14.440Z,98453.72
2023-04-20T12:21:42.498Z,98449.09
2023-04-20T12:24:10.558Z,98453.44
2023-04-20T12:26:39.098Z,98440.78
2023-04-20T12:29:08.736Z,98451.88
2023-04-20T12:31:37.307Z,98442.06
2023-04-20T12:34:05.494Z,98443.19
2023-04-20T12:36:35.174Z,98445.13
2023-04-20T12:39:04.663Z,98440.25
2023-04-20T12:41:33.351Z,98443.84
2023-04-20T12:44:04.172Z,98437.97
2023-04-20T12:46:34.012Z,98440.13
2023-04-20T12:49:02.163Z,98434.66
2023-04-20T12:51:30.152Z,98428.28
2023-04-20T12:53:58.321Z,98427.91
2023-04-20T12:56:26.408Z,98431.38
2023-04-20T12:58:54.483Z,98427.66
2023-04-20T13:01:22.545Z,98422.44
2023-04-20T13:03:53.238Z,98419.69
2023-04-20T13:06:21.580Z,98425.59
2023-04-20T13:08:50.743Z,98424.81
2023-04-20T13:11:18.864Z,98426.50
2023-04-20T13:13:46.886Z,98422.47
2023-04-20T13:16:15.293Z,98419.34
2023-04-20T13:18:43.403Z,98421.56
2023-04-20T13:21:12.870Z,98424.53
2023-04-20T13:23:40.998Z,98416.91
2023-04-20T13:26:09.522Z,98413.28
2023-04-20T13:28:38.076Z,98417.66
2023-04-20T13:31:06.438Z,98406.75
2023-04-20T13:33:34.489Z,98409.78
2023-04-20T13:36:02.691Z,98401.81
2023-04-20T13:38:32.266Z,98402.06
2023-04-20T13:41:00.333Z,98414.03
2023-04-20T13:43:28.404Z,98404.91
2023-04-20T13:45:56.522Z,98411.47
2023-04-20T13:48:24.563Z,98408.47
2023-04-20T13:50:54.148Z,98401.88
2023-04-20T13:53:22.698Z,98405.28
2023-04-20T13:55:52.120Z,98408.16
2023-04-20T13:58:20.269Z,98411.06
2023-04-20T14:00:48.323Z,98399.16
2023-04-20T14:03:18.845Z,98405.69
2023-04-20T14:05:47.702Z,98405.69
2023-04-20T14:08:16.510Z,98400.66
2023-04-20T14:10:44.631Z,98404.00
2023-04-20T14:13:14.014Z,98390.38
2023-04-20T14:15:42.670Z,98406.34
2023-04-20T14:18:10.728Z,98401.34
2023-04-20T14:20:38.821Z,98400.59
2023-04-20T14:23:09.302Z,98400.25
2023-04-20T14:25:37.793Z,98393.22
2023-04-20T14:28:06.221Z,98396.91
2023-04-20T14:30:35.621Z,98402.31
2023-04-20T14:33:04.311Z,98403.81
2023-04-20T14:35:32.591Z,98392.97
2023-04-20T14:38:01.901Z,98398.16
2023-04-20T14:40:30.283Z,98400.63
2023-04-20T14:42:58.322Z,98393.25
2023-04-20T14:45:26.498Z,98395.22
2023-04-20T14:47:57.125Z,98398.28
2023-04-20T14:50:27.493Z,98400.38
2023-04-20T14:52:56.468Z,98396.25
2023-04-20T14:55:26.121Z,98403.25
2023-04-20T14:57:56.859Z,98400.75
2023-04-20T15:00:27.889Z,98398.09
2023-04-20T15:02:57.991Z,98389.94
2023-04-20T15:05:27.584Z,98397.78
2023-04-20T15:07:55.798Z,98397.13
2023-04-20T15:10:23.979Z,98395.97
2023-04-20T15:12:52.163Z,98396.44
2023-04-20T15:15:20.742Z,98393.34
2023-04-20T15:17:48.756Z,98389.34
2023-04-20T15:20:18.608Z,98392.88
2023-04-20T15:22:46.814Z,98401.50
2023-04-20T15:25:15.158Z,98393.84
2023-04-20T15:27:43.202Z,98395.91
2023-04-20T15:30:12.143Z,98401.69
2023-04-20T15:32:41.591Z,98390.97
2023-04-20T15:35:10.059Z,98393.41
2023-04-20T15:37:39.552Z,98397.78
2023-04-20T15:40:09.054Z,98388.56
2023-04-20T15:42:37.189Z,98391.38
2023-04-20T15:45:05.834Z,98380.72
2023-04-20T15:47:34.102Z,98393.97
2023-04-20T15:50:03.453Z,98395.84
2023-04-20T15:52:32.587Z,98389.53
2023-04-20T15:55:02.012Z,98395.81
2023-04-20T15:57:30.734Z,98393.13
2023-04-20T15:59:58.858Z,98394.75
2023-04-20T16:02:26.954Z,98392.03
2023-04-20T16:04:55.410Z,98390.88
2023-04-20T16:07:23.686Z,98377.66
2023-04-20T16:09:51.658Z,98380.41
2023-04-20T16:12:21.260Z,98388.03
2023-04-20T16:14:51.786Z,98389.09
2023-04-20T16:17:21.590Z,98396.53
2023-04-20T16:19:49.671Z,98388.19
2023-04-20T16:22:17.853Z,98381.03
2023-04-20T16:24:46.091Z,98389.03
2023-04-20T16:27:14.471Z,98384.09
2023-04-20T16:29:43.816Z,98387.34
2023-04-20T16:32:11.988Z,98384.78
2023-04-20T16:34:39.994Z,98393.06
2023-04-20T16:37:08.221Z,98377.66
2023-04-20T16:39:36.589Z,98391.44
2023-04-20T16:42:05.189Z,98395.81
2023-04-20T16:44:33.237Z,98398.03
2023-04-20T16:47:03.312Z,98398.28
2023-04-20T16:49:32.118Z,98398.28
2023-04-20T16:52:00.264Z,98394.47
2023-04-20T16:54:28.379Z,98392.72
2023-04-20T16:56:56.870Z,98390.50
2023-04-20T16:59:25.028Z,98395.22
2023-04-20T17:01:53.118Z,98388.78
2023-04-20T17:04:22.883Z,98396.78
2023-04-20T17:06:51.817Z,98393.03
2023-04-20T17:09:20.236Z,98395.16
2023-04-20T17:11:48.359Z,98393.13
2023-04-20T17:14:16.995Z,98394.97
2023-04-20T17:16:45.542Z,98401.41
2023-04-20T17:19:13.801Z,98393.13
2023-04-20T17:21:45.249Z,98392.63
2023-04-20T17:24:13.310Z,98391.81
2023-04-20T17:26:41.348Z,98395.84
2023-04-20T17:29:09.425Z,98400.91
2023-04-20T17:31:37.532Z,98399.06
2023-04-20T17:34:07.099Z,98396.84
2023-04-20T17:36:35.312Z,98395.19
2023-04-20T17:39:04.888Z,98400.16
2023-04-20T17:41:34.884Z,98398.59
2023-04-20T17:44:02.905Z,98399.28
2023-04-20T17:46:30.969Z,98400.00
2023-04-20T17:48:59.032Z,98400.56
2023-04-20T17:51:27.646Z,98401.41
2023-04-20T17:53:55.724Z,98391.03
2023-04-20T17:56:25.342Z,98396.88
2023-04-20T17:58:54.916Z,98394.09
2023-04-20T18:01:22.954Z,98391.84
2023-04-20T18:03:51.305Z,98396.34
2023-04-20T18:06:19.420Z,98391.63
2023-04-20T18:08:47.569Z,98402.41
2023-04-20T18:11:15.580Z,98393.31
2023-04-20T18:13:45.011Z,98402.75
2023-04-20T18:16:13.121Z,98398.72
2023-04-20T18:18:41.267Z,98391.00
2023-04-20T18:21:09.881Z,98398.34
2023-04-20T18:23:37.836Z,98397.16
2023-04-20T18:26:05.933Z,98393.81
2023-04-20T18:28:33.982Z,98402.09
2023-04-20T18:31:03.500Z,98402.84
2023-04-20T18:33:31.553Z,98405.94
2023-04-20T18:35:59.798Z,98403.63
2023-04-20T18:38:27.841Z,98401.97
2023-04-20T18:40:56.158Z,98406.19
2023-04-20T18:43:24.202Z,98395.72
2023-04-20T18:45:52.399Z,98404.72
2023-04-20T18:48:21.819Z,98408.28
2023-04-20T18:50:49.877Z,98410.75
2023-04-20T18:53:17.952Z,98404.47
2023-04-20T18:55:46.591Z,98409.31
2023-04-20T18:58:14.675Z,98409.22
2023-04-20T19:00:42.834Z,98412.47
2023-04-20T19:03:11.039Z,98417.31
2023-04-20T19:05:40.749Z,98411.34
2023-04-20T19:08:08.747Z,98411.31
2023-04-20T19:10:36.852Z,98410.81
2023-04-20T19:13:04.917Z,98408.94
2023-04-20T19:15:33.572Z,98412.09
2023-04-20T19:18:01.666Z,98409.19
2023-04-20T19:20:29.970Z,98402.47
2023-04-20T19:22:59.494Z,98407.53
2023-04-20T19:25:27.823Z,98404.22
2023-04-20T19:27:56.163Z,98398.44
2023-04-20T19:30:24.437Z,98402.97
2023-04-20T19:32:52.742Z,98401.66
2023-04-20T19:35:21.006Z,98412.59
2023-04-20T19:37:49.049Z,98404.75
2023-04-20T19:40:21.865Z,98396.69
2023-04-20T19:42:50.772Z,98403.00
2023-04-20T19:45:19.061Z,98405.03
2023-04-20T19:47:47.278Z,98403.28
2023-04-20T19:50:15.910Z,98401.00
2023-04-20T19:52:44.077Z,98396.94
2023-04-20T19:55:12.154Z,98399.22
2023-04-20T19:57:41.748Z,98406.84
2023-04-20T20:00:11.234Z,98405.28
2023-04-20T20:02:43.209Z,98400.25
2023-04-20T20:05:11.709Z,98401.53
2023-04-20T20:07:40.007Z,98401.00
2023-04-20T20:10:08.827Z,98398.19
2023-04-20T20:12:36.892Z,98399.00
2023-04-20T20:15:06.696Z,98396.72
2023-04-20T20:17:34.923Z,98398.72
2023-04-20T20:20:06.036Z,98396.16
2023-04-20T20:22:34.613Z,98396.94
2023-04-20T20:25:03.087Z,98398.16
2023-04-20T20:27:31.198Z,98400.69
2023-04-20T20:29:59.158Z,98405.53
2023-04-20T20:32:28.773Z,98401.94
2023-04-20T20:34:57.471Z,98392.13
2023-04-20T20:37:25.999Z,98394.41
2023-04-20T20:39:54.293Z,98392.94
2023-04-20T20:42:22.382Z,98392.59
2023-04-20T20:44:50.973Z,98397.44
2023-04-20T20:47:19.118Z,98396.13
2023-04-20T20:49:48.514Z,98393.59
2023-04-20T20:52:16.600Z,98401.81
2023-04-20T20:54:44.582Z,98410.47
2023-04-20T20:57:12.644Z,98412.72
2023-04-20T20:59:40.683Z,98398.41
2023-04-20T21:02:08.880Z,98395.28
2023-04-20T21:04:37.203Z,98394.72
2023-04-20T21:07:06.632Z,98391.69
2023-04-20T21:09:34.734Z,98396.06
2023-04-20T21:12:02.883Z,98388.94
2023-04-20T21:14:30.975Z,98391.94
2023-04-20T21:16:59.425Z,98388.03
2023-04-20T21:19:27.617Z,98397.28
2023-04-20T21:21:55.855Z,98394.69
2023-04-20T21:24:25.389Z,98390.72
2023-04-20T21:26:53.430Z,98400.59
2023-04-20T21:29:21.661Z,98398.59
2023-04-20T21:31:52.052Z,98394.44
2023-04-20T21:34:20.430Z,98402.53
2023-04-20T21:36:48.410Z,98396.69
2023-04-20T21:39:16.835Z,98400.53
2023-04-20T21:41:46.897Z,98393.78
2023-04-20T21:44:15.755Z,98393.06
2023-04-20T21:46:43.865Z,98401.84
2023-04-20T21:49:11.939Z,98398.22
2023-04-20T21:51:39.966Z,98394.25
2023-04-20T21:54:08.077Z,98398.09
2023-04-20T21:56:36.179Z,98400.75
2023-04-20T21:59:05.743Z,98399.19
2023-04-20T22:01:33.773Z,98399.00
2023-04-20T22:04:02.319Z,98402.13
2023-04-20T22:06:31.948Z,98396.25
2023-04-20T22:09:00.113Z,98395.13
2023-04-20T22:11:29.677Z,98394.81
2023-04-20T22:13:58.383Z,98397.28
2023-04-20T22:16:28.690Z,98400.72
2023-04-20T22:18:57.074Z,98392.34
2023-04-20T22:21:25.147Z,98389.00
2023-04-20T22:23:53.419Z,98391.69
2023-04-20T22:26:21.413Z,98392.91
2023-04-20T22:28:49.631Z,98387.59
2023-04-20T22:31:17.690Z,98391.91
2023-04-20T22:33:47.124Z,98392.09
2023-04-20T22:36:15.680Z,98385.94
2023-04-20T22:38:43.938Z,98396.88
2023-04-20T22:41:12.076Z,98394.97
2023-04-20T22:43:40.149Z,98397.88
2023-04-20T22:46:08.289Z,98401.91
2023-04-20T22:48:36.863Z,98397.97
2023-04-20T22:51:06.806Z,98397.53
2023-04-20T22:53:34.868Z,98396.34
2023-04-20T22:56:07.275Z,98400.94
2023-04-20T22:58:35.772Z,98396.63
2023-04-20T23:01:03.829Z,98393.44
2023-04-20T23:03:32.628Z,98396.72
2023-04-20T23:06:00.767Z,98393.66
2023-04-20T23:08:30.209Z,98392.47
2023-04-20T23:10:59.015Z,98398.44
2023-04-20T23:13:27.269Z,98398.25
2023-04-20T23:15:55.473Z,98395.38
2023-04-20T23:18:23.521Z,98401.25
2023-04-20T23:20:51.591Z,98398.31
2023-04-20T23:23:19.597Z,98400.00
2023-04-20T23:25:49.008Z,98406.16
2023-04-20T23:28:17.096Z,98409.72
2023-04-20T23:30:45.201Z,98405.16
2023-04-20T23:33:13.232Z,98408.81
2023-04-20T23:35:42.211Z,98411.97
2023-04-20T23:38:10.209Z,98410.44
2023-04-20T23:40:39.427Z,98407.97
2023-04-20T23:43:08.745Z,98409.50
2023-04-20T23:45:36.918Z,98405.97
2023-04-20T23:48:05.244Z,98400.19
2023-04-20T23:50:33.449Z,98400.94
2023-04-20T23:53:02.197Z,98403.47
2023-04-20T23:55:30.455Z,98396.66
2023-04-20T23:57:58.909Z,98399.19
